Time;durP1;ratioP1;P1;durP2;ratioP2;P2;SDS_P1;SDS_P2;PMS_P1;PMS_P2;Temp;Humidity;BMP_temperature;BMP_pressure;BME280_temperature;BME280_humidity;BME280_pressure;Samples;Min_cycle;Max_cycle;Signal;HPM_P1;HPM_P2
2021/04/22 00:00:57;;;;;;;3.92;1.38;;;4.60;99.90;;;;;;5033648;28;20193;-66
2021/04/22 00:03:24;;;;;;;9.60;1.63;;;4.60;99.90;;;;;;5033777;28;20387;-65
2021/04/22 00:05:52;;;;;;;5.10;1.98;;;4.50;99.90;;;;;;5015893;28;20193;-65
2021/04/22 00:08:19;;;;;;;7.47;1.98;;;4.50;99.90;;;;;;5033405;28;20221;-65
2021/04/22 00:10:49;;;;;;;4.32;1.63;;;4.50;99.90;;;;;;5015911;28;20233;-66
2021/04/22 00:13:20;;;;;;;3.45;1.73;;;4.50;99.90;;;;;;5033481;28;20206;-65
2021/04/22 00:15:48;;;;;;;7.63;2.40;;;4.60;99.90;;;;;;5033497;28;20268;-65
2021/04/22 00:18:15;;;;;;;5.38;2.33;;;4.70;99.90;;;;;;5033626;28;20693;-65
2021/04/22 00:20:42;;;;;;;3.63;1.88;;;4.80;99.90;;;;;;5033321;28;20604;-65
2021/04/22 00:23:11;;;;;;;13.60;2.88;;;4.90;99.90;;;;;;5032998;28;20682;-64
2021/04/22 00:25:41;;;;;;;4.10;2.33;;;5.00;99.90;;;;;;5033352;28;20189;-67
2021/04/22 00:28:09;;;;;;;4.38;2.55;;;5.00;99.90;;;;;;5033203;28;20256;-66
2021/04/22 00:30:38;;;;;;;8.38;2.17;;;5.00;99.90;;;;;;5032988;28;20178;-66
2021/04/22 00:33:07;;;;;;;10.98;2.10;;;5.00;99.90;;;;;;5033082;28;20276;-66
2021/04/22 00:35:34;;;;;;;2.55;1.65;;;5.00;99.90;;;;;;5034195;28;20178;-67
2021/04/22 00:38:01;;;;;;;2.35;1.40;;;5.10;99.90;;;;;;5034125;28;20209;-66
2021/04/22 00:40:29;;;;;;;7.65;3.22;;;5.10;99.90;;;;;;5034081;28;20658;-67
2021/04/22 00:42:59;;;;;;;11.65;1.85;;;5.10;99.90;;;;;;5033630;28;20202;-66
2021/04/22 00:45:27;;;;;;;6.47;2.13;;;5.10;99.90;;;;;;5034092;28;20181;-66
2021/04/22 00:47:55;;;;;;;6.68;1.52;;;5.20;99.90;;;;;;5033725;28;20205;-67
2021/04/22 00:50:24;;;;;;;6.07;2.30;;;5.20;99.90;;;;;;5016023;28;20198;-66
2021/04/22 00:52:53;;;;;;;3.97;1.98;;;5.20;99.90;;;;;;5015856;28;20659;-67
2021/04/22 00:55:21;;;;;;;5.90;1.98;;;5.30;99.90;;;;;;5015624;28;20666;-68
2021/04/22 00:57:48;;;;;;;4.43;1.65;;;5.30;99.90;;;;;;5033368;28;20256;-67
2021/04/22 01:00:18;;;;;;;7.55;2.33;;;5.30;99.90;;;;;;5033211;28;20198;-68
2021/04/22 01:02:46;;;;;;;3.00;1.63;;;5.30;99.90;;;;;;5033447;28;20209;-67
2021/04/22 01:05:18;;;;;;;3.58;1.77;;;5.30;99.90;;;;;;5033342;28;20521;-68
2021/04/22 01:07:46;;;;;;;2.53;2.22;;;5.40;99.90;;;;;;5033179;28;20312;-67
2021/04/22 01:10:16;;;;;;;7.88;2.65;;;5.40;99.90;;;;;;5033338;28;20730;-67
2021/04/22 01:12:44;;;;;;;6.75;2.72;;;5.40;99.90;;;;;;5032996;28;20177;-67
2021/04/22 01:15:14;;;;;;;13.13;3.53;;;5.40;99.90;;;;;;5033495;28;20177;-67
2021/04/22 01:17:41;;;;;;;10.52;3.30;;;5.40;99.90;;;;;;5033102;28;20205;-66
2021/04/22 01:20:10;;;;;;;6.25;2.47;;;5.40;99.90;;;;;;5033160;28;20642;-65
2021/04/22 01:22:38;;;;;;;4.70;2.85;;;5.40;99.90;;;;;;5032986;28;20198;-68
2021/04/22 01:25:07;;;;;;;9.75;2.55;;;5.40;99.90;;;;;;5032913;28;20190;-66
2021/04/22 01:27:35;;;;;;;8.02;4.72;;;5.40;99.90;;;;;;5033418;28;20220;-66
2021/04/22 01:30:06;;;;;;;8.55;2.13;;;5.40;99.90;;;;;;5033719;28;20178;-67
2021/04/22 01:32:33;;;;;;;6.05;2.42;;;5.40;99.90;;;;;;5033315;28;20176;-66
2021/04/22 01:35:00;;;;;;;6.53;2.53;;;5.40;99.90;;;;;;5033091;28;20174;-65
2021/04/22 01:37:29;;;;;;;7.07;2.65;;;5.30;99.90;;;;;;5032844;28;20209;-67
2021/04/22 01:39:57;;;;;;;10.25;3.20;;;5.50;99.90;;;;;;5033019;28;20217;-66
2021/04/22 01:42:24;;;;;;;8.15;1.92;;;5.40;99.90;;;;;;5033176;28;20951;-66
2021/04/22 01:44:51;;;;;;;4.93;2.35;;;5.40;99.90;;;;;;5033338;28;20600;-69
2021/04/22 01:47:19;;;;;;;4.32;2.50;;;5.40;99.90;;;;;;5032246;28;20209;-67
2021/04/22 01:49:46;;;;;;;10.40;2.70;;;5.40;99.90;;;;;;5032524;28;20178;-67
2021/04/22 01:52:13;;;;;;;9.35;2.28;;;5.30;99.90;;;;;;5014739;28;20204;-65
2021/04/22 01:54:40;;;;;;;3.88;1.88;;;5.40;99.90;;;;;;5031934;28;20185;-67
2021/04/22 01:57:08;;;;;;;6.05;2.30;;;5.40;99.90;;;;;;5032223;28;20185;-67
2021/04/22 01:59:36;;;;;;;9.18;2.90;;;5.40;99.90;;;;;;5032158;28;20185;-65
2021/04/22 02:02:04;;;;;;;10.88;2.05;;;5.40;99.90;;;;;;5032257;28;20178;-65
2021/04/22 02:04:31;;;;;;;10.35;3.10;;;5.40;99.90;;;;;;5032138;28;20212;-67
2021/04/22 02:06:58;;;;;;;3.40;2.03;;;5.40;99.90;;;;;;5032255;28;20174;-67
2021/04/22 02:09:25;;;;;;;7.57;2.53;;;5.30;99.90;;;;;;5032146;28;20631;-67
2021/04/22 02:11:52;;;;;;;11.45;2.83;;;5.30;99.90;;;;;;5032283;28;20761;-67
2021/04/22 02:14:20;;;;;;;9.82;2.58;;;5.30;99.90;;;;;;5032168;28;20177;-68
2021/04/22 02:16:47;;;;;;;8.93;2.30;;;5.30;99.90;;;;;;5032000;28;20182;-67
2021/04/22 02:19:15;;;;;;;3.78;1.85;;;5.30;99.90;;;;;;5032193;28;20205;-67
2021/04/22 02:21:42;;;;;;;5.50;1.70;;;5.30;99.90;;;;;;5032369;28;20708;-67
2021/04/22 02:24:10;;;;;;;12.65;2.28;;;5.30;99.90;;;;;;5031882;28;20213;-67
2021/04/22 02:26:37;;;;;;;14.65;2.40;;;5.30;99.90;;;;;;5032178;28;20185;-66
2021/04/22 02:29:05;;;;;;;3.20;1.80;;;5.30;99.90;;;;;;5032033;28;20703;-67
2021/04/22 02:31:33;;;;;;;9.98;4.55;;;5.20;99.90;;;;;;5014393;28;20564;-67
2021/04/22 02:34:00;;;;;;;7.38;2.40;;;5.20;99.90;;;;;;5031860;28;20170;-66
2021/04/22 02:36:28;;;;;;;3.40;1.90;;;5.20;99.90;;;;;;5031917;28;20522;-67
2021/04/22 02:38:55;;;;;;;11.75;2.95;;;5.30;99.90;;;;;;5032025;28;20228;-67
2021/04/22 02:41:22;;;;;;;8.35;3.10;;;5.30;99.90;;;;;;5032105;28;20185;-66
2021/04/22 02:43:49;;;;;;;4.20;2.65;;;5.20;99.90;;;;;;5033115;28;20201;-67
2021/04/22 02:46:17;;;;;;;6.10;2.42;;;5.20;99.90;;;;;;5032896;28;20201;-67
2021/04/22 02:48:45;;;;;;;4.38;2.08;;;5.20;99.90;;;;;;5015253;28;20224;-67
2021/04/22 02:51:12;;;;;;;15.18;2.25;;;5.10;99.90;;;;;;5033270;28;20174;-67
2021/04/22 02:53:39;;;;;;;7.82;2.67;;;5.10;99.90;;;;;;5034993;28;20635;-67
2021/04/22 02:56:07;;;;;;;6.72;2.45;;;5.10;99.90;;;;;;5034772;28;20184;-67
2021/04/22 02:58:34;;;;;;;4.57;2.33;;;5.10;99.90;;;;;;5034017;28;20637;-67
2021/04/22 03:01:01;;;;;;;7.15;2.30;;;5.20;99.90;;;;;;5032936;28;20185;-67
2021/04/22 03:03:28;;;;;;;6.32;1.98;;;5.10;99.90;;;;;;5031243;28;20212;-65
2021/04/22 03:05:57;;;;;;;8.73;1.88;;;5.20;99.90;;;;;;5034413;28;20240;-66
2021/04/22 03:08:24;;;;;;;3.67;2.50;;;5.20;99.90;;;;;;5034364;28;20205;-66
2021/04/22 03:10:52;;;;;;;3.92;2.65;;;5.20;99.90;;;;;;5034528;28;20177;-66
2021/04/22 03:13:19;;;;;;;10.52;2.58;;;5.10;99.90;;;;;;5016785;28;20193;-64
2021/04/22 03:15:46;;;;;;;3.22;2.05;;;5.10;99.90;;;;;;5034659;28;20194;-65
2021/04/22 03:18:13;;;;;;;5.80;2.50;;;5.10;99.90;;;;;;5034493;28;20228;-66
2021/04/22 03:20:41;;;;;;;4.57;2.53;;;5.10;99.90;;;;;;5034298;28;20192;-66
2021/04/22 03:23:09;;;;;;;4.85;1.90;;;5.00;99.90;;;;;;5033991;28;20221;-67
2021/04/22 03:25:36;;;;;;;5.78;2.95;;;5.00;99.90;;;;;;5034013;28;20193;-66
2021/04/22 03:28:04;;;;;;;7.88;2.60;;;5.00;99.90;;;;;;5033883;28;20205;-66
2021/04/22 03:30:33;;;;;;;6.50;2.92;;;5.00;99.90;;;;;;5034064;28;20185;-65
2021/04/22 03:33:01;;;;;;;4.07;2.15;;;5.00;99.90;;;;;;5034072;28;20177;-67
2021/04/22 03:35:28;;;;;;;10.30;2.85;;;5.00;99.90;;;;;;5034190;28;20178;-66
2021/04/22 03:37:56;;;;;;;7.72;3.63;;;5.00;99.90;;;;;;5033986;28;20216;-67
2021/04/22 03:40:26;;;;;;;11.43;2.35;;;4.90;99.90;;;;;;5034007;28;20222;-67
2021/04/22 03:42:54;;;;;;;7.72;2.47;;;4.90;99.90;;;;;;5033793;28;20793;-67
2021/04/22 03:45:23;;;;;;;11.75;3.22;;;4.90;99.90;;;;;;5033634;28;20174;-66
2021/04/22 03:47:50;;;;;;;10.73;3.63;;;4.90;99.90;;;;;;5033462;28;20213;-65
2021/04/22 03:50:19;;;;;;;10.88;3.20;;;4.90;99.90;;;;;;5033482;28;20185;-66
2021/04/22 03:52:48;;;;;;;7.93;2.78;;;4.90;99.90;;;;;;5033449;28;20192;-65
2021/04/22 03:55:17;;;;;;;7.45;2.53;;;4.90;99.90;;;;;;5033489;28;20186;-66
2021/04/22 03:57:45;;;;;;;3.88;2.25;;;4.90;99.90;;;;;;5033439;28;20209;-67
2021/04/22 04:00:15;;;;;;;5.70;2.45;;;4.90;99.90;;;;;;5033571;28;20178;-67
2021/04/22 04:02:43;;;;;;;10.95;2.58;;;4.90;99.90;;;;;;5033579;28;20184;-67
2021/04/22 04:05:11;;;;;;;6.50;2.50;;;4.90;99.90;;;;;;5015479;28;20198;-66
2021/04/22 04:07:38;;;;;;;4.40;1.90;;;4.90;99.90;;;;;;5032976;28;20226;-66
2021/04/22 04:10:07;;;;;;;6.68;3.40;;;4.90;99.90;;;;;;5033215;28;20264;-66
2021/04/22 04:12:35;;;;;;;6.47;2.60;;;4.90;99.90;;;;;;5033043;28;20178;-66
2021/04/22 04:15:04;;;;;;;3.58;2.65;;;4.90;99.90;;;;;;5033027;28;20170;-66
2021/04/22 04:17:31;;;;;;;11.70;3.30;;;4.90;99.90;;;;;;5014611;28;20232;-66
2021/04/22 04:20:00;;;;;;;9.45;3.40;;;4.90;99.90;;;;;;5033063;28;20202;-66
2021/04/22 04:22:27;;;;;;;6.22;1.92;;;5.00;99.90;;;;;;5033122;28;20260;-66
2021/04/22 04:24:55;;;;;;;11.68;2.88;;;5.00;99.90;;;;;;5032926;28;20213;-66
2021/04/22 04:27:22;;;;;;;6.80;3.90;;;5.00;99.90;;;;;;5032976;28;20201;-66
2021/04/22 04:29:49;;;;;;;12.90;2.45;;;5.10;99.90;;;;;;5015755;28;20189;-65
2021/04/22 04:32:18;;;;;;;5.68;2.10;;;5.10;99.90;;;;;;5015655;28;20189;-65
2021/04/22 04:34:45;;;;;;;5.88;1.92;;;5.10;99.90;;;;;;5015937;28;20247;-66
2021/04/22 04:37:13;;;;;;;4.95;2.38;;;5.10;99.90;;;;;;5015629;28;20224;-66
2021/04/22 04:39:40;;;;;;;3.35;2.28;;;5.10;99.90;;;;;;5032752;28;20567;-67
2021/04/22 04:42:08;;;;;;;5.18;2.17;;;5.10;99.90;;;;;;5032835;28;20196;-65
2021/04/22 04:44:35;;;;;;;14.75;2.08;;;5.20;99.90;;;;;;5032474;28;20343;-64
2021/04/22 04:47:02;;;;;;;4.18;2.72;;;5.20;99.90;;;;;;5032412;28;20189;-65
2021/04/22 04:49:30;;;;;;;6.75;2.75;;;5.20;99.90;;;;;;5032515;28;20192;-65
2021/04/22 04:51:57;;;;;;;21.58;4.97;;;5.30;99.90;;;;;;5032609;28;20185;-66
2021/04/22 04:54:24;;;;;;;15.63;2.38;;;5.40;99.90;;;;;;5032585;28;20223;-64
2021/04/22 04:56:52;;;;;;;8.57;2.80;;;5.50;99.90;;;;;;5032895;28;20662;-65
2021/04/22 04:59:19;;;;;;;3.40;3.10;;;5.50;99.90;;;;;;5032574;28;20173;-67
2021/04/22 05:01:46;;;;;;;8.25;2.20;;;5.50;99.90;;;;;;5032360;28;20169;-66
2021/04/22 05:04:13;;;;;;;7.18;2.65;;;5.60;99.90;;;;;;5032175;28;20198;-66
2021/04/22 05:06:41;;;;;;;5.75;2.55;;;5.70;99.90;;;;;;5032125;28;20177;-65
2021/04/22 05:09:08;;;;;;;8.85;2.53;;;5.80;99.90;;;;;;5032432;28;20219;-68
2021/04/22 05:11:35;;;;;;;3.03;1.75;;;5.80;99.90;;;;;;5030124;28;20181;-65
2021/04/22 05:14:03;;;;;;;4.05;1.92;;;6.00;99.90;;;;;;5031850;28;20543;-66
2021/04/22 05:16:30;;;;;;;5.30;1.73;;;6.10;99.90;;;;;;5031751;28;20178;-66
2021/04/22 05:18:57;;;;;;;9.75;2.85;;;6.20;99.90;;;;;;5030726;28;20213;-67
2021/04/22 05:21:24;;;;;;;12.93;2.35;;;6.30;99.90;;;;;;5031994;28;20177;-67
2021/04/22 05:23:52;;;;;;;5.68;2.00;;;6.20;99.90;;;;;;5031958;28;20283;-65
2021/04/22 05:26:20;;;;;;;5.22;2.15;;;6.30;99.90;;;;;;5032288;28;20206;-66
2021/04/22 05:28:47;;;;;;;12.32;2.70;;;6.30;99.90;;;;;;5031140;28;20240;-66
2021/04/22 05:31:15;;;;;;;6.05;2.42;;;6.40;99.90;;;;;;5032226;28;20580;-65
2021/04/22 05:33:42;;;;;;;10.25;2.55;;;6.60;99.90;;;;;;5031782;28;20170;-66
2021/04/22 05:36:10;;;;;;;1.80;1.17;;;6.70;99.90;;;;;;5032101;28;20204;-66
2021/04/22 05:38:38;;;;;;;6.25;2.30;;;6.80;99.90;;;;;;5013982;28;20594;-66
2021/04/22 05:41:06;;;;;;;6.97;2.75;;;6.90;99.90;;;;;;5031969;28;20663;-66
2021/04/22 05:43:33;;;;;;;9.45;3.00;;;6.70;99.90;;;;;;5031675;28;20572;-65
2021/04/22 05:46:01;;;;;;;10.25;2.13;;;6.50;99.90;;;;;;5031941;28;20227;-65
2021/04/22 05:48:28;;;;;;;10.00;2.80;;;6.50;99.90;;;;;;5031921;28;20255;-65
2021/04/22 05:50:56;;;;;;;4.25;2.63;;;6.50;99.90;;;;;;5031522;28;20185;-64
2021/04/22 05:53:23;;;;;;;4.68;2.10;;;6.60;99.90;;;;;;5031772;28;20200;-65
2021/04/22 05:55:50;;;;;;;8.35;2.10;;;6.60;99.90;;;;;;5031920;28;20236;-66
2021/04/22 05:58:18;;;;;;;11.85;2.40;;;6.60;99.90;;;;;;5031347;28;20216;-66
2021/04/22 06:00:45;;;;;;;6.85;2.40;;;6.70;99.90;;;;;;5031614;28;20269;-65
2021/04/22 06:03:12;;;;;;;5.78;3.10;;;6.60;99.90;;;;;;5031594;28;20197;-65
2021/04/22 06:05:40;;;;;;;2.53;2.33;;;6.50;99.90;;;;;;5031405;28;20287;-66
2021/04/22 06:08:10;;;;;;;8.38;2.25;;;6.60;99.90;;;;;;5031511;28;20652;-66
2021/04/22 06:10:38;;;;;;;3.97;1.95;;;6.70;99.90;;;;;;5031692;28;20252;-66
2021/04/22 06:13:08;;;;;;;6.70;2.20;;;6.90;99.90;;;;;;5031770;28;20276;-66
2021/04/22 06:15:36;;;;;;;11.00;2.65;;;6.80;99.90;;;;;;5031594;28;20195;-65
2021/04/22 06:18:04;;;;;;;4.72;1.75;;;6.90;99.90;;;;;;5031595;28;20213;-66
2021/04/22 06:20:31;;;;;;;11.65;3.13;;;6.80;99.90;;;;;;5013927;28;20193;-68
2021/04/22 06:23:10;;;;;;;3.83;1.98;;;6.70;99.90;;;;;;5031568;28;20197;-66
2021/04/22 06:25:38;;;;;;;9.73;2.67;;;6.80;99.90;;;;;;5031584;28;20227;-66
2021/04/22 06:28:05;;;;;;;8.15;1.85;;;7.10;99.90;;;;;;5031290;28;20227;-65
2021/04/22 06:30:32;;;;;;;5.18;1.73;;;6.90;99.90;;;;;;5031274;28;20764;-66
2021/04/22 06:33:01;;;;;;;6.50;3.70;;;7.00;99.90;;;;;;5031517;28;20181;-65
2021/04/22 06:35:28;;;;;;;7.50;2.85;;;6.90;99.90;;;;;;5031284;28;20194;-65
2021/04/22 06:37:56;;;;;;;17.75;3.05;;;7.10;99.90;;;;;;5031447;28;20213;-65
2021/04/22 06:40:24;;;;;;;8.77;2.03;;;7.20;99.90;;;;;;5034265;28;20178;-67
2021/04/22 06:42:53;;;;;;;1.95;1.67;;;7.20;99.90;;;;;;5035397;28;20180;-67
2021/04/22 06:45:21;;;;;;;5.75;1.55;;;7.30;99.90;;;;;;5035296;28;20662;-66
2021/04/22 06:47:48;;;;;;;3.17;1.92;;;7.20;99.90;;;;;;5035424;28;20714;-65
2021/04/22 06:50:23;;;;;;;4.70;2.67;;;7.30;99.90;;;;;;5017202;28;20208;-65
2021/04/22 06:52:51;;;;;;;5.35;1.95;;;7.20;99.90;;;;;;5035134;28;20177;-66
2021/04/22 06:55:20;;;;;;;4.88;1.95;;;7.30;99.90;;;;;;5035317;28;20177;-65
2021/04/22 06:57:55;;;;;;;9.15;2.75;;;7.50;99.90;;;;;;5034761;28;20240;-66
2021/04/22 07:00:25;;;;;;;5.80;2.78;;;7.80;99.90;;;;;;5035205;28;20200;-65
2021/04/22 07:02:53;;;;;;;15.48;3.47;;;7.80;99.90;;;;;;5035035;28;20177;-67
2021/04/22 07:05:22;;;;;;;3.47;2.55;;;7.90;99.90;;;;;;5017948;28;20755;-66
2021/04/22 07:07:49;;;;;;;6.45;2.85;;;7.90;99.90;;;;;;5035206;28;20219;-67
2021/04/22 07:10:17;;;;;;;6.55;2.45;;;8.10;99.90;;;;;;5035128;28;20213;-65
2021/04/22 07:12:45;;;;;;;4.03;1.75;;;8.40;99.90;;;;;;5035112;28;20305;-65
2021/04/22 07:15:13;;;;;;;10.23;3.33;;;8.90;99.90;;;;;;5035510;28;20186;-65
2021/04/22 07:17:41;;;;;;;6.88;4.00;;;9.00;99.90;;;;;;5034586;28;20212;-65
2021/04/22 07:20:12;;;;;;;14.23;3.08;;;8.70;99.90;;;;;;5034448;28;20170;-67
2021/04/22 07:22:52;;;;;;;4.57;2.25;;;8.90;99.90;;;;;;5034505;28;20219;-66
2021/04/22 07:25:20;;;;;;;5.32;2.38;;;8.60;99.90;;;;;;5034624;28;20212;-66
2021/04/22 07:27:47;;;;;;;10.00;1.75;;;8.60;99.90;;;;;;5034134;28;20252;-65
2021/04/22 07:30:16;;;;;;;5.40;2.20;;;8.40;99.90;;;;;;5034589;28;20195;-65
2021/04/22 07:32:44;;;;;;;5.43;2.67;;;8.10;99.90;;;;;;5034866;28;20235;-65
2021/04/22 07:35:14;;;;;;;5.70;2.67;;;7.80;99.90;;;;;;5035528;28;20181;-65
2021/04/22 07:37:42;;;;;;;5.20;1.95;;;8.00;99.90;;;;;;5035743;28;20300;-65
2021/04/22 07:40:13;;;;;;;6.43;2.65;;;8.20;99.90;;;;;;5036335;28;20192;-67
2021/04/22 07:42:40;;;;;;;6.57;2.35;;;8.40;99.90;;;;;;5036304;28;20643;-65
2021/04/22 07:45:08;;;;;;;7.25;1.70;;;8.50;99.90;;;;;;5035898;28;20244;-66
2021/04/22 07:47:36;;;;;;;12.15;3.00;;;8.50;99.90;;;;;;5035452;28;20577;-68
2021/04/22 07:50:06;;;;;;;5.30;2.13;;;8.70;99.90;;;;;;5035856;28;20178;-65
2021/04/22 07:52:33;;;;;;;6.38;2.28;;;8.50;99.90;;;;;;5034528;28;20197;-65
2021/04/22 07:55:00;;;;;;;8.25;2.95;;;8.60;99.90;;;;;;5034185;28;20190;-68
2021/04/22 07:57:28;;;;;;;4.13;2.25;;;8.60;99.90;;;;;;5034120;28;20635;-69
2021/04/22 07:59:56;;;;;;;7.55;2.33;;;8.50;99.90;;;;;;5033754;28;20196;-65
2021/04/22 08:02:37;;;;;;;9.75;2.47;;;8.30;99.90;;;;;;5033986;28;20174;-67
2021/04/22 08:05:06;;;;;;;7.53;2.28;;;8.40;99.90;;;;;;5034001;28;20213;-66
2021/04/22 08:07:34;;;;;;;6.85;1.55;;;8.70;99.90;;;;;;5033968;28;20201;-65
2021/04/22 08:10:01;;;;;;;4.82;1.55;;;8.90;99.90;;;;;;5033842;28;20189;-67
2021/04/22 08:12:29;;;;;;;4.18;2.28;;;9.40;99.90;;;;;;5033648;28;20240;-65
2021/04/22 08:14:59;;;;;;;4.38;2.42;;;9.40;99.90;;;;;;5034676;28;20243;-70
2021/04/22 08:17:27;;;;;;;9.45;2.38;;;9.10;99.90;;;;;;5034203;28;20252;-68
2021/04/22 08:19:54;;;;;;;6.25;2.33;;;8.80;99.90;;;;;;5033234;28;20194;-68
2021/04/22 08:22:21;;;;;;;5.25;2.28;;;8.70;99.90;;;;;;5033225;28;20216;-66
2021/04/22 08:24:48;;;;;;;5.38;3.67;;;8.90;99.90;;;;;;5033308;28;20712;-67
2021/04/22 08:27:15;;;;;;;15.68;2.55;;;8.90;99.90;;;;;;5033307;28;20209;-68
2021/04/22 08:29:43;;;;;;;10.20;2.55;;;9.00;99.90;;;;;;5015393;28;20177;-65
2021/04/22 08:32:10;;;;;;;8.63;1.60;;;9.10;99.90;;;;;;5032898;28;20189;-68
2021/04/22 08:34:39;;;;;;;2.83;1.90;;;9.30;99.90;;;;;;5033215;28;20185;-66
2021/04/22 08:37:06;;;;;;;5.90;2.13;;;9.20;99.90;;;;;;5033229;28;20202;-69
2021/04/22 08:39:34;;;;;;;4.70;1.50;;;9.20;99.90;;;;;;5032881;28;20594;-67
2021/04/22 08:42:02;;;;;;;6.53;1.52;;;8.90;99.90;;;;;;5015189;28;20710;-66
2021/04/22 08:44:30;;;;;;;2.47;1.35;;;8.80;99.90;;;;;;5032294;28;20593;-67
2021/04/22 08:46:59;;;;;;;2.95;1.90;;;9.10;99.90;;;;;;5032589;28;20195;-68
2021/04/22 08:49:28;;;;;;;5.88;2.05;;;9.20;99.90;;;;;;5032568;28;20661;-66
2021/04/22 08:51:55;;;;;;;3.47;1.83;;;9.10;99.90;;;;;;5032639;28;20197;-67
2021/04/22 08:54:23;;;;;;;2.92;1.60;;;8.90;99.90;;;;;;5032819;28;20174;-66
2021/04/22 08:56:50;;;;;;;3.03;1.30;;;9.00;99.90;;;;;;5032630;28;20177;-66
2021/04/22 08:59:18;;;;;;;3.97;1.67;;;9.20;99.90;;;;;;5032889;28;20485;-67
2021/04/22 09:01:47;;;;;;;15.48;3.92;;;9.10;99.90;;;;;;5032361;28;20274;-64
2021/04/22 09:04:15;;;;;;;2.78;1.30;;;9.10;99.90;;;;;;5014756;28;20248;-67
2021/04/22 09:06:42;;;;;;;6.03;1.70;;;9.20;99.90;;;;;;5032208;28;20651;-66
2021/04/22 09:09:10;;;;;;;5.68;2.00;;;9.70;99.90;;;;;;5031904;28;20213;-65
2021/04/22 09:11:44;;;;;;;3.17;2.60;;;10.00;99.90;;;;;;5032224;28;20181;-66
2021/04/22 09:14:13;;;;;;;2.00;1.52;;;10.20;99.90;;;;;;5032308;28;20566;-67
2021/04/22 09:16:42;;;;;;;5.00;1.77;;;10.20;99.90;;;;;;5032335;28;20170;-66
2021/04/22 09:19:13;;;;;;;4.00;1.60;;;9.90;99.90;;;;;;5032513;28;20272;-68
2021/04/22 09:21:44;;;;;;;3.22;2.15;;;9.80;99.90;;;;;;5032694;28;20265;-64
2021/04/22 09:24:13;;;;;;;2.65;1.40;;;10.10;99.90;;;;;;5033630;28;20271;-66
2021/04/22 09:26:44;;;;;;;4.00;2.10;;;10.10;99.90;;;;;;5032827;28;20182;-65
2021/04/22 09:29:13;;;;;;;3.65;1.65;;;9.90;99.90;;;;;;5033052;28;20212;-68
2021/04/22 09:31:42;;;;;;;2.22;1.20;;;9.90;99.90;;;;;;5032390;28;20197;-65
2021/04/22 09:34:12;;;;;;;3.40;1.52;;;10.00;99.90;;;;;;5031967;28;20178;-66
2021/04/22 09:36:46;;;;;;;3.25;1.52;;;10.30;99.90;;;;;;5032021;28;20184;-65
2021/04/22 09:39:16;;;;;;;6.05;1.65;;;10.30;99.90;;;;;;5032095;28;20248;-65
2021/04/22 09:41:44;;;;;;;3.00;1.40;;;10.10;99.90;;;;;;5031879;28;20185;-67
2021/04/22 09:44:13;;;;;;;5.63;1.75;;;10.00;99.90;;;;;;5032082;28;20232;-66
2021/04/22 09:46:43;;;;;;;7.78;1.70;;;10.30;99.90;;;;;;5031864;28;20170;-64
2021/04/22 09:49:12;;;;;;;3.78;1.88;;;10.10;99.90;;;;;;5031639;28;20694;-65
2021/04/22 09:51:40;;;;;;;5.40;1.70;;;10.30;99.90;;;;;;5031774;28;20538;-66
2021/04/22 09:54:12;;;;;;;2.97;1.08;;;10.30;99.90;;;;;;5013886;28;20189;-65
2021/04/22 09:56:43;;;;;;;10.77;3.03;;;10.20;99.90;;;;;;5031820;28;20190;-65
2021/04/22 09:59:11;;;;;;;1.88;0.95;;;10.40;99.90;;;;;;5031296;28;20213;-63
2021/04/22 10:01:38;;;;;;;1.92;1.52;;;10.70;99.90;;;;;;5031406;28;20181;-63
2021/04/22 10:04:05;;;;;;;5.05;2.15;;;10.80;99.90;;;;;;5031306;28;20204;-65
2021/04/22 10:06:40;;;;;;;3.08;1.17;;;10.80;99.90;;;;;;5031592;28;20174;-65
2021/04/22 10:09:09;;;;;;;1.48;0.70;;;10.50;99.90;;;;;;5031874;28;20212;-67
2021/04/22 10:11:44;;;;;;;3.38;1.33;;;10.10;99.90;;;;;;5031578;28;20197;-67
2021/04/22 10:14:11;;;;;;;2.78;1.30;;;10.00;99.90;;;;;;5031189;28;20188;-65
2021/04/22 10:16:38;;;;;;;3.08;1.35;;;10.10;99.90;;;;;;5031684;28;20235;-64
2021/04/22 10:19:17;;;;;;;3.40;1.67;;;10.40;99.90;;;;;;5031179;28;20205;-66
2021/04/22 10:21:45;;;;;;;2.38;1.10;;;10.70;99.90;;;;;;5031173;28;20192;-65
2021/04/22 10:24:14;;;;;;;1.17;0.80;;;11.20;99.90;;;;;;5031212;28;20682;-64
2021/04/22 10:26:43;;;;;;;3.00;1.40;;;11.90;99.90;;;;;;5031587;28;20217;-66
2021/04/22 10:29:11;;;;;;;3.85;1.35;;;12.10;99.90;;;;;;5031089;28;20422;-65
2021/04/22 10:31:39;;;;;;;2.50;1.43;;;12.10;99.90;;;;;;5013321;28;20197;-64
2021/04/22 10:34:09;;;;;;;2.53;1.13;;;11.70;99.90;;;;;;5031315;28;20846;-64
2021/04/22 10:36:38;;;;;;;3.92;1.20;;;11.70;99.90;;;;;;5031075;28;20186;-63
2021/04/22 10:39:06;;;;;;;1.55;0.77;;;11.60;99.90;;;;;;5030691;28;20209;-63
2021/04/22 10:41:35;;;;;;;2.03;0.90;;;11.50;99.90;;;;;;5031576;28;20563;-64
2021/04/22 10:44:05;;;;;;;5.63;1.20;;;11.50;99.90;;;;;;5030801;28;20601;-64
2021/04/22 10:46:36;;;;;;;2.70;1.08;;;11.40;99.90;;;;;;5031419;28;20670;-64
2021/04/22 10:49:05;;;;;;;1.20;0.80;;;11.50;99.90;;;;;;5031218;28;20613;-65
2021/04/22 10:51:32;;;;;;;5.17;1.13;;;11.90;99.90;;;;;;5030850;28;20197;-65
2021/04/22 10:54:02;;;;;;;5.20;1.90;;;11.90;99.90;;;;;;5030764;28;20420;-65
2021/04/22 10:56:30;;;;;;;4.07;1.23;;;11.80;99.90;;;;;;5030653;28;20185;-64
2021/04/22 10:58:58;;;;;;;2.25;1.00;;;11.20;99.90;;;;;;5030510;28;20209;-64
2021/04/22 11:01:35;;;;;;;4.15;1.35;;;10.70;99.90;;;;;;5030896;28;20182;-65
2021/04/22 11:04:05;;;;;;;10.75;2.22;;;10.30;99.90;;;;;;5030938;28;20279;-65
2021/04/22 11:06:34;;;;;;;3.60;1.25;;;10.70;99.90;;;;;;5031970;28;20189;-65
2021/04/22 11:09:12;;;;;;;1.90;0.90;;;11.30;99.90;;;;;;5031107;28;20574;-64
2021/04/22 11:11:51;;;;;;;2.30;1.83;;;12.10;99.90;;;;;;5030902;28;20178;-63
2021/04/22 11:14:19;;;;;;;4.45;1.33;;;12.30;99.90;;;;;;5030967;28;20700;-67
2021/04/22 11:16:51;;;;;;;3.47;1.00;;;12.10;99.90;;;;;;5031148;28;20197;-65
2021/04/22 11:19:21;;;;;;;2.10;0.90;;;12.10;99.90;;;;;;5030844;28;20194;-67
2021/04/22 11:21:53;;;;;;;2.17;0.90;;;12.20;99.90;;;;;;5031223;28;20173;-65
2021/04/22 11:24:32;;;;;;;3.78;1.33;;;12.00;99.90;;;;;;5030416;28;20216;-66
2021/04/22 11:27:05;;;;;;;3.05;1.05;;;11.60;99.90;;;;;;5032530;28;20271;-66
2021/04/22 11:29:43;;;;;;;3.40;2.13;;;11.60;99.90;;;;;;5034318;28;20182;-65
2021/04/22 11:32:20;;;;;;;13.73;1.90;;;11.80;99.90;;;;;;5034374;28;20420;-65
2021/04/22 11:34:49;;;;;;;2.40;1.80;;;12.10;99.90;;;;;;5034119;28;20423;-65
2021/04/22 11:37:18;;;;;;;2.47;1.40;;;12.20;99.90;;;;;;5034100;28;20812;-66
2021/04/22 11:39:46;;;;;;;3.75;1.25;;;11.90;99.90;;;;;;5033674;28;20185;-66
2021/04/22 11:42:13;;;;;;;2.70;1.45;;;11.70;99.90;;;;;;5033876;28;20205;-67
2021/04/22 11:44:44;;;;;;;2.35;1.30;;;11.40;99.90;;;;;;5033982;28;20277;-65
2021/04/22 11:47:27;;;;;;;4.53;1.35;;;11.40;99.90;;;;;;5034470;28;20243;-66
2021/04/22 11:50:06;;;;;;;1.90;1.65;;;11.70;99.90;;;;;;5033967;28;20268;-69
2021/04/22 11:52:47;;;;;;;7.28;1.45;;;11.70;99.90;;;;;;5033845;28;20173;-68
2021/04/22 11:55:18;;;;;;;3.20;1.30;;;11.70;99.90;;;;;;5033694;28;20546;-65
2021/04/22 11:57:55;;;;;;;9.50;1.23;;;11.50;99.90;;;;;;5033440;28;20287;-67
2021/04/22 12:00:26;;;;;;;2.80;1.67;;;11.50;99.90;;;;;;5033743;28;20189;-68
2021/04/22 12:02:54;;;;;;;2.72;1.48;;;11.50;99.90;;;;;;5033850;28;20859;-65
2021/04/22 12:05:22;;;;;;;9.45;2.97;;;11.50;99.90;;;;;;5034275;28;20217;-66
2021/04/22 12:07:55;;;;;;;5.65;1.90;;;11.30;99.90;;;;;;5034052;28;20220;-66
2021/04/22 12:10:23;;;;;;;5.10;2.25;;;11.20;99.90;;;;;;5033621;28;20212;-65
2021/04/22 12:13:02;;;;;;;4.70;1.77;;;11.00;99.90;;;;;;5033381;28;20185;-66
2021/04/22 12:15:30;;;;;;;5.83;1.70;;;11.40;99.90;;;;;;5032155;28;20550;-65
2021/04/22 12:17:57;;;;;;;6.17;1.53;;;12.10;99.90;;;;;;5033096;28;20464;-65
2021/04/22 12:20:24;;;;;;;2.63;1.43;;;12.60;99.90;;;;;;5033118;28;20439;-66
2021/04/22 12:22:51;;;;;;;5.47;1.73;;;12.60;99.90;;;;;;5032936;28;20435;-66
2021/04/22 12:25:21;;;;;;;2.20;1.47;;;12.50;99.90;;;;;;5033189;28;20518;-66
2021/04/22 12:27:50;;;;;;;3.28;1.52;;;12.00;99.90;;;;;;5033603;28;20436;-67
2021/04/22 12:30:24;;;;;;;2.50;1.48;;;11.70;99.90;;;;;;5033745;28;20185;-64
2021/04/22 12:33:00;;;;;;;1.37;0.87;;;11.40;99.90;;;;;;5033837;28;20244;-65
2021/04/22 12:35:30;;;;;;;7.57;1.30;;;11.20;99.90;;;;;;5033817;28;20770;-64
2021/04/22 12:38:11;;;;;;;3.50;1.20;;;11.20;99.90;;;;;;5033090;28;20210;-66
2021/04/22 12:40:38;;;;;;;2.33;1.27;;;11.30;99.90;;;;;;5033333;28;20190;-65
2021/04/22 12:43:06;;;;;;;4.82;1.40;;;11.40;99.90;;;;;;5033595;28;20198;-65
2021/04/22 12:45:37;;;;;;;3.85;1.38;;;11.60;99.90;;;;;;5032922;28;20220;-66
2021/04/22 12:48:08;;;;;;;4.38;1.60;;;11.70;99.90;;;;;;5032693;28;20721;-66
2021/04/22 12:50:42;;;;;;;5.40;1.20;;;11.90;99.90;;;;;;5032762;28;20193;-65
2021/04/22 12:53:13;;;;;;;5.57;1.48;;;11.60;99.90;;;;;;5032827;28;20558;-68
2021/04/22 12:55:44;;;;;;;7.80;1.67;;;11.50;99.90;;;;;;5032798;28;20188;-63
2021/04/22 12:58:13;;;;;;;4.50;1.15;;;11.50;99.90;;;;;;5032537;28;20661;-65
2021/04/22 13:00:43;;;;;;;4.32;1.10;;;11.50;99.90;;;;;;5032708;28;20606;-64